createdAt,value
2019-01-11T00:00:16.334Z,64.64
2019-01-11T00:02:49.038Z,64.37
2019-01-11T00:05:20.336Z,64.40
2019-01-11T00:07:51.676Z,65.92
2019-01-11T00:10:22.875Z,65.30
2019-01-11T00:12:53.971Z,63.60
2019-01-11T00:15:25.125Z,63.22
2019-01-11T00:17:56.193Z,63.68
2019-01-11T00:20:29.208Z,63.78
2019-01-11T00:23:00.351Z,64.10
2019-01-11T00:25:31.576Z,64.90
2019-01-11T00:28:02.820Z,64.48
2019-01-11T00:30:34.006Z,64.09
2019-01-11T00:33:05.485Z,64.52
2019-01-11T00:35:36.725Z,64.99
2019-01-11T00:38:07.866Z,64.74
2019-01-11T00:40:39.104Z,65.61
2019-01-11T00:43:14.989Z,65.28
2019-01-11T00:45:43.444Z,65.06
2019-01-11T00:48:14.594Z,66.19
2019-01-11T00:50:45.686Z,66.04
2019-01-11T00:53:16.836Z,64.56
2019-01-11T00:55:47.993Z,65.44
2019-01-11T00:58:19.172Z,65.63
2019-01-11T01:00:50.334Z,65.51
2019-01-11T01:03:21.497Z,64.24
2019-01-11T01:05:52.740Z,65.08
2019-01-11T01:08:30.396Z,66.19
2019-01-11T01:10:56.927Z,66.00
2019-01-11T01:13:28.207Z,65.86
2019-01-11T01:15:59.361Z,64.26
2019-01-11T01:18:30.541Z,63.16
2019-01-11T01:21:01.642Z,63.46
2019-01-11T01:23:32.716Z,63.93
2019-01-11T01:26:04.270Z,64.52
2019-01-11T01:28:35.339Z,62.90
2019-01-11T01:31:06.567Z,64.33
2019-01-11T01:33:37.870Z,64.55
2019-01-11T01:36:09.005Z,64.04
2019-01-11T01:38:40.059Z,63.38
2019-01-11T01:41:11.482Z,65.02
2019-01-11T01:43:42.635Z,65.74
2019-01-11T01:46:13.763Z,65.30
2019-01-11T01:48:45.394Z,63.23
2019-01-11T01:51:16.913Z,63.20
2019-01-11T01:53:48.152Z,63.94
2019-01-11T01:56:19.451Z,64.38
2019-01-11T01:58:50.608Z,63.32
2019-01-11T02:01:21.766Z,63.30
2019-01-11T02:03:52.898Z,64.37
2019-01-11T02:06:24.023Z,65.21
2019-01-11T02:08:55.084Z,63.06
2019-01-11T02:11:26.262Z,64.26
2019-01-11T02:13:57.472Z,64.27
2019-01-11T02:16:28.628Z,63.42
2019-01-11T02:18:59.684Z,64.56
2019-01-11T02:21:30.947Z,62.16
2019-01-11T02:24:02.081Z,62.17
2019-01-11T02:26:33.294Z,63.07
2019-01-11T02:29:04.689Z,63.25
2019-01-11T02:31:35.948Z,63.09
2019-01-11T02:34:07.259Z,63.34
2019-01-11T02:36:38.323Z,63.13
2019-01-11T02:39:09.580Z,64.08
2019-01-11T02:41:40.791Z,64.27
2019-01-11T02:44:11.951Z,62.71
2019-01-11T02:46:43.234Z,66.62
2019-01-11T02:49:14.576Z,66.62
2019-01-11T02:51:45.631Z,68.03
2019-01-11T02:54:16.733Z,67.23
2019-01-11T02:56:47.816Z,68.06
2019-01-11T02:59:18.951Z,68.46
2019-01-11T03:01:49.994Z,67.89
2019-01-11T03:04:21.000Z,67.25
2019-01-11T03:06:52.067Z,67.23
2019-01-11T03:09:23.415Z,68.08
2019-01-11T03:11:55.400Z,68.33
2019-01-11T03:14:26.551Z,68.20
2019-01-11T03:16:58.695Z,66.28
2019-01-11T03:19:29.858Z,65.58
2019-01-11T03:22:01.173Z,65.18
2019-01-11T03:24:32.395Z,65.53
2019-01-11T03:27:03.452Z,67.02
2019-01-11T03:29:34.894Z,67.10
2019-01-11T03:32:06.169Z,65.84
2019-01-11T03:34:44.949Z,66.08
2019-01-11T03:37:16.223Z,66.38
2019-01-11T03:39:47.323Z,65.68
2019-01-11T03:42:18.564Z,66.60
2019-01-11T03:44:49.759Z,66.75
2019-01-11T03:47:21.024Z,64.56
2019-01-11T03:49:55.055Z,63.57
2019-01-11T03:52:24.920Z,64.21
2019-01-11T03:54:55.960Z,62.17
2019-01-11T03:57:27.121Z,64.87
2019-01-11T03:59:58.287Z,63.01
2019-01-11T04:02:29.443Z,64.24
2019-01-11T04:05:00.824Z,65.42
2019-01-11T04:07:32.052Z,65.65
2019-01-11T04:10:03.177Z,66.41
2019-01-11T04:12:34.243Z,67.05
2019-01-11T04:15:07.481Z,67.90
2019-01-11T04:17:38.599Z,67.44
2019-01-11T04:20:13.083Z,67.86
2019-01-11T04:22:48.874Z,68.62
2019-01-11T04:25:22.392Z,68.24
2019-01-11T04:27:53.766Z,67.49
2019-01-11T04:30:24.966Z,67.84
2019-01-11T04:32:55.958Z,67.58
2019-01-11T04:35:27.452Z,67.56
2019-01-11T04:37:58.570Z,67.38
2019-01-11T04:40:34.085Z,67.91
2019-01-11T04:43:02.421Z,69.03
2019-01-11T04:45:33.563Z,68.33
2019-01-11T04:48:04.720Z,68.63
2019-01-11T04:50:35.910Z,69.72
2019-01-11T04:53:07.141Z,69.87
2019-01-11T04:55:38.272Z,69.46
2019-01-11T04:58:09.272Z,68.55
2019-01-11T05:00:40.415Z,68.70
2019-01-11T05:03:11.743Z,69.77
2019-01-11T05:05:43.057Z,69.18
2019-01-11T05:08:14.177Z,69.92
2019-01-11T05:10:45.197Z,69.25
2019-01-11T05:13:30.047Z,70.19
2019-01-11T05:16:01.158Z,70.06
2019-01-11T05:18:32.234Z,70.30
2019-01-11T05:21:03.409Z,69.70
2019-01-11T05:23:34.615Z,70.55
2019-01-11T05:26:05.757Z,70.23
2019-01-11T05:28:37.027Z,69.89
2019-01-11T05:31:08.116Z,69.91
2019-01-11T05:33:39.224Z,70.41
2019-01-11T05:36:10.375Z,71.51
2019-01-11T05:38:41.416Z,71.24
2019-01-11T05:41:12.648Z,71.53
2019-01-11T05:43:43.794Z,71.32
2019-01-11T05:46:15.055Z,71.72
2019-01-11T05:48:46.131Z,70.91
2019-01-11T05:51:17.342Z,70.75
2019-01-11T05:53:48.408Z,70.77
2019-01-11T05:56:20.639Z,71.74
2019-01-11T05:58:58.300Z,71.63
2019-01-11T06:01:29.452Z,71.32
2019-01-11T06:04:00.606Z,70.58
2019-01-11T06:06:50.692Z,70.40
2019-01-11T06:09:21.783Z,70.10
2019-01-11T06:11:52.831Z,70.48
2019-01-11T06:14:23.926Z,70.02
2019-01-11T06:16:55.014Z,70.02
2019-01-11T06:19:26.098Z,70.22
2019-01-11T06:21:57.235Z,70.49
2019-01-11T06:24:28.379Z,69.56
2019-01-11T06:26:59.553Z,69.33
2019-01-11T06:29:30.757Z,69.44
2019-01-11T06:32:01.941Z,69.71
2019-01-11T06:34:33.048Z,69.74
2019-01-11T06:37:04.412Z,69.86
2019-01-11T06:39:35.639Z,70.73
2019-01-11T06:42:25.433Z,70.26
2019-01-11T06:44:56.976Z,70.41
2019-01-11T06:47:28.374Z,71.28
2019-01-11T06:49:59.557Z,71.77
2019-01-11T06:52:30.834Z,71.99
2019-01-11T06:55:03.603Z,71.90
2019-01-11T06:57:34.717Z,72.06
2019-01-11T07:00:09.270Z,71.85
2019-01-11T07:02:40.444Z,72.28
2019-01-11T07:05:12.372Z,72.04
2019-01-11T07:07:43.514Z,72.61
2019-01-11T07:10:17.259Z,72.60
2019-01-11T07:12:48.382Z,72.44
2019-01-11T07:15:19.512Z,72.50
2019-01-11T07:17:50.586Z,72.24
2019-01-11T07:20:21.776Z,72.16
2019-01-11T07:22:54.375Z,71.77
2019-01-11T07:25:25.529Z,71.44
2019-01-11T07:28:02.108Z,71.81
2019-01-11T07:30:51.047Z,71.20
2019-01-11T07:33:23.614Z,70.61
2019-01-11T07:36:05.884Z,70.34
2019-01-11T07:38:36.939Z,70.65
2019-01-11T07:41:08.498Z,70.27
2019-01-11T07:43:39.702Z,70.17
2019-01-11T07:46:10.954Z,69.47
2019-01-11T07:48:42.096Z,68.80
2019-01-11T07:51:13.223Z,68.54
2019-01-11T07:53:44.475Z,68.26
2019-01-11T07:56:34.752Z,67.19
2019-01-11T07:59:06.512Z,67.96
2019-01-11T08:01:37.620Z,66.72
2019-01-11T08:04:09.565Z,66.18
2019-01-11T08:06:40.856Z,66.33
2019-01-11T08:09:12.078Z,64.67
2019-01-11T08:11:43.369Z,64.84
2019-01-11T08:14:14.564Z,64.84
2019-01-11T08:16:45.708Z,64.80
2019-01-11T08:19:17.053Z,64.14
2019-01-11T08:21:48.134Z,62.97
2019-01-11T08:24:19.359Z,63.40
2019-01-11T08:26:50.901Z,61.63
2019-01-11T08:29:22.151Z,61.03
2019-01-11T08:31:53.328Z,60.82
2019-01-11T08:34:24.354Z,60.40
2019-01-11T08:36:55.484Z,60.51
2019-01-11T08:39:32.354Z,59.86
2019-01-11T08:41:59.561Z,60.48
2019-01-11T08:44:30.643Z,59.88
2019-01-11T08:47:01.637Z,60.77
2019-01-11T08:49:32.911Z,60.25
2019-01-11T08:52:04.161Z,59.91
2019-01-11T08:54:35.284Z,60.89
2019-01-11T08:57:06.444Z,60.24
2019-01-11T08:59:37.599Z,60.77
2019-01-11T09:02:08.688Z,59.83
2019-01-11T09:04:39.797Z,59.32
2019-01-11T09:07:10.941Z,58.85
2019-01-11T09:09:42.097Z,58.64
2019-01-11T09:12:13.470Z,59.45
2019-01-11T09:14:48.329Z,60.21
2019-01-11T09:17:20.646Z,59.88
2019-01-11T09:19:51.902Z,59.66
2019-01-11T09:22:22.893Z,60.02
2019-01-11T09:24:53.995Z,60.29
2019-01-11T09:27:25.052Z,59.20
2019-01-11T09:29:56.142Z,60.57
2019-01-11T09:32:27.283Z,59.42
2019-01-11T09:34:58.368Z,59.86
2019-01-11T09:37:29.439Z,59.84
2019-01-11T09:40:00.528Z,59.34
2019-01-11T09:42:31.679Z,59.51
2019-01-11T09:45:02.858Z,58.03
2019-01-11T09:47:33.865Z,58.91
2019-01-11T09:50:06.254Z,58.03
2019-01-11T09:52:37.393Z,60.39
2019-01-11T09:55:08.992Z,58.74
2019-01-11T09:57:40.272Z,58.35
2019-01-11T10:00:15.120Z,59.12
2019-01-11T10:02:53.401Z,59.95
2019-01-11T10:05:24.586Z,59.08
2019-01-11T10:07:55.676Z,61.12
2019-01-11T10:10:27.196Z,60.56
2019-01-11T10:12:58.343Z,59.41
2019-01-11T10:15:29.539Z,59.63
2019-01-11T10:18:00.685Z,58.22
2019-01-11T10:20:31.850Z,58.96
2019-01-11T10:23:03.287Z,57.70
2019-01-11T10:25:34.450Z,58.46
2019-01-11T10:28:05.749Z,57.72
2019-01-11T10:30:36.945Z,58.84
2019-01-11T10:33:08.123Z,59.24
2019-01-11T10:35:39.290Z,60.58
2019-01-11T10:38:10.311Z,58.96
2019-01-11T10:40:41.549Z,59.30
2019-01-11T10:43:12.555Z,58.74
2019-01-11T10:45:43.657Z,60.48
2019-01-11T10:48:14.734Z,61.20
2019-01-11T10:50:45.816Z,59.78
2019-01-11T10:53:16.804Z,61.41
2019-01-11T10:55:47.852Z,60.96
2019-01-11T10:58:19.068Z,62.32
2019-01-11T11:00:50.157Z,61.73
2019-01-11T11:03:21.203Z,62.31
2019-01-11T11:05:52.284Z,61.94
2019-01-11T11:08:23.297Z,62.78
2019-01-11T11:10:54.390Z,62.43
2019-01-11T11:13:25.457Z,62.21
2019-01-11T11:15:58.288Z,62.26
2019-01-11T11:18:29.431Z,60.88
2019-01-11T11:21:00.515Z,61.84
2019-01-11T11:23:31.915Z,60.91
2019-01-11T11:26:03.083Z,61.86
2019-01-11T11:28:35.336Z,60.86
2019-01-11T11:31:06.485Z,61.03
2019-01-11T11:33:37.628Z,60.72
2019-01-11T11:36:08.704Z,60.55
2019-01-11T11:38:39.733Z,60.95
2019-01-11T11:41:10.853Z,61.44
2019-01-11T11:43:42.002Z,63.23
2019-01-11T11:46:15.963Z,63.22
2019-01-11T11:48:47.128Z,62.46
2019-01-11T11:51:18.460Z,61.21
2019-01-11T11:53:49.585Z,61.37
2019-01-11T11:56:21.036Z,61.72
2019-01-11T11:58:52.113Z,60.77
2019-01-11T12:01:23.253Z,60.63
2019-01-11T12:03:54.302Z,61.68
2019-01-11T12:06:25.303Z,61.30
2019-01-11T12:08:56.456Z,62.32
2019-01-11T12:11:27.538Z,62.36
2019-01-11T12:13:59.717Z,62.61
2019-01-11T12:16:30.825Z,63.96
2019-01-11T12:19:01.955Z,63.33
2019-01-11T12:21:33.441Z,62.62
2019-01-11T12:24:04.673Z,63.41
2019-01-11T12:26:35.770Z,63.37
2019-01-11T12:29:07.099Z,64.05
2019-01-11T12:31:38.252Z,63.65
2019-01-11T12:34:09.398Z,63.95
2019-01-11T12:36:40.485Z,64.22
2019-01-11T12:39:11.532Z,65.43
2019-01-11T12:41:42.631Z,65.68
2019-01-11T12:44:13.721Z,66.09
2019-01-11T12:46:44.725Z,66.83
2019-01-11T12:49:15.802Z,66.86
2019-01-11T12:51:46.894Z,69.10
2019-01-11T12:54:18.031Z,70.03
2019-01-11T12:56:49.099Z,69.45
2019-01-11T12:59:20.170Z,70.18
2019-01-11T13:01:51.197Z,69.92
2019-01-11T13:04:22.356Z,71.02
2019-01-11T13:06:53.441Z,70.99
2019-01-11T13:09:24.530Z,72.26
2019-01-11T13:11:55.696Z,71.51
2019-01-11T13:14:26.876Z,71.68
2019-01-11T13:16:58.055Z,70.63
2019-01-11T13:19:29.197Z,72.32
2019-01-11T13:22:00.783Z,71.52
2019-01-11T13:24:32.009Z,71.53
2019-01-11T13:27:03.121Z,70.97
2019-01-11T13:29:34.189Z,70.75
2019-01-11T13:32:05.850Z,71.01
2019-01-11T13:34:36.922Z,71.96
2019-01-11T13:37:08.103Z,73.53
2019-01-11T13:39:40.173Z,73.98
2019-01-11T13:42:11.341Z,74.45
2019-01-11T13:44:42.489Z,75.83
2019-01-11T13:47:13.655Z,75.28
2019-01-11T13:49:44.763Z,75.37
2019-01-11T13:52:15.861Z,75.25
2019-01-11T13:54:48.122Z,75.72
2019-01-11T13:57:19.225Z,75.63
2019-01-11T13:59:50.329Z,75.77
2019-01-11T14:02:21.487Z,75.74
2019-01-11T14:04:52.599Z,75.90
2019-01-11T14:07:23.712Z,75.84
2019-01-11T14:09:54.811Z,76.38
2019-01-11T14:12:25.851Z,76.81
2019-01-11T14:14:56.879Z,77.23
2019-01-11T14:17:27.979Z,77.08
2019-01-11T14:19:59.049Z,77.14
2019-01-11T14:22:31.305Z,77.23
2019-01-11T14:25:03.174Z,77.05
2019-01-11T14:27:34.182Z,77.10
2019-01-11T14:30:07.002Z,77.52
2019-01-11T14:32:38.177Z,78.04
2019-01-11T14:35:09.657Z,78.29
2019-01-11T14:37:40.680Z,78.57
2019-01-11T14:40:13.433Z,79.27
2019-01-11T14:42:44.537Z,78.76
2019-01-11T14:45:16.831Z,79.60
2019-01-11T14:47:48.014Z,79.97
2019-01-11T14:50:19.935Z,80.54
2019-01-11T14:52:51.022Z,80.22
2019-01-11T14:55:22.097Z,80.04
2019-01-11T14:57:53.231Z,80.13
2019-01-11T15:00:24.608Z,80.44
2019-01-11T15:02:55.664Z,80.43
2019-01-11T15:05:26.735Z,80.36
2019-01-11T15:07:57.902Z,80.63
2019-01-11T15:10:29.018Z,80.76
2019-01-11T15:13:00.174Z,80.74
2019-01-11T15:15:31.259Z,81.03
2019-01-11T15:18:02.347Z,80.36
2019-01-11T15:20:33.432Z,80.76
2019-01-11T15:23:04.605Z,80.56
2019-01-11T15:25:35.688Z,81.03
2019-01-11T15:28:06.952Z,81.11
2019-01-11T15:30:39.300Z,80.76
2019-01-11T15:33:10.547Z,80.84
2019-01-11T15:35:41.599Z,81.04
2019-01-11T15:38:13.068Z,81.10
2019-01-11T15:40:44.213Z,81.42
2019-01-11T15:43:15.411Z,81.16
2019-01-11T15:45:47.934Z,81.28
2019-01-11T15:48:21.596Z,81.27
2019-01-11T15:50:59.361Z,81.71
2019-01-11T15:53:39.740Z,80.85
2019-01-11T15:56:12.496Z,81.15
2019-01-11T15:58:43.516Z,81.34
2019-01-11T16:01:14.619Z,81.41
2019-01-11T16:03:45.781Z,80.96
2019-01-11T16:06:39.694Z,80.94
2019-01-11T16:09:57.427Z,81.57
2019-01-11T16:12:42.832Z,81.85
2019-01-11T16:15:59.925Z,82.34
2019-01-11T16:18:32.528Z,82.73
2019-01-11T16:21:03.719Z,82.31
2019-01-11T16:23:34.896Z,82.56
2019-01-11T16:26:07.125Z,82.65
2019-01-11T16:28:38.285Z,82.75
2019-01-11T16:31:09.393Z,82.66
2019-01-11T16:33:41.460Z,82.90
2019-01-11T16:36:13.615Z,83.26
2019-01-11T16:38:44.712Z,82.88
2019-01-11T16:41:16.208Z,82.06
2019-01-11T16:43:47.333Z,82.40
2019-01-11T16:46:18.578Z,82.86
2019-01-11T16:48:49.692Z,82.76
2019-01-11T16:51:20.807Z,82.64
2019-01-11T16:53:51.904Z,82.98
2019-01-11T16:56:23.779Z,82.76
2019-01-11T16:58:54.872Z,82.80
2019-01-11T17:01:25.950Z,82.61
2019-01-11T17:03:57.046Z,82.78
2019-01-11T17:06:28.283Z,82.64
2019-01-11T17:08:59.463Z,82.31
2019-01-11T17:11:30.597Z,82.45
2019-01-11T17:14:01.707Z,82.44
2019-01-11T17:16:32.792Z,82.44
2019-01-11T17:19:04.378Z,82.45
2019-01-11T17:21:35.548Z,82.47
2019-01-11T17:24:06.702Z,82.39
2019-01-11T17:26:37.860Z,82.23
2019-01-11T17:29:08.945Z,82.26
2019-01-11T17:31:40.122Z,82.49
2019-01-11T17:34:11.219Z,82.28
2019-01-11T17:36:42.245Z,82.50
2019-01-11T17:39:13.260Z,82.26
2019-01-11T17:41:44.332Z,82.45
2019-01-11T17:44:15.508Z,82.91
2019-01-11T17:46:46.595Z,82.98
2019-01-11T17:49:17.705Z,82.80
2019-01-11T17:51:48.830Z,82.62
2019-01-11T17:54:20.067Z,82.53
2019-01-11T17:56:51.179Z,82.37
2019-01-11T17:59:22.294Z,82.14
2019-01-11T18:01:53.378Z,82.17
2019-01-11T18:04:24.466Z,82.39
2019-01-11T18:06:55.569Z,82.23
2019-01-11T18:09:26.677Z,82.38
2019-01-11T18:11:57.813Z,82.34
2019-01-11T18:14:28.933Z,82.01
2019-01-11T18:17:00.159Z,81.63
2019-01-11T18:19:31.306Z,81.60
2019-01-11T18:22:02.447Z,81.52
2019-01-11T18:24:33.563Z,81.44
2019-01-11T18:27:04.723Z,81.67
2019-01-11T18:29:35.779Z,81.79
2019-01-11T18:32:06.975Z,81.98
2019-01-11T18:34:38.127Z,82.14
2019-01-11T18:37:10.339Z,82.61
2019-01-11T18:39:41.358Z,82.22
2019-01-11T18:42:12.462Z,81.92
2019-01-11T18:44:43.455Z,81.97
2019-01-11T18:47:14.587Z,82.48
2019-01-11T18:49:45.705Z,82.81
2019-01-11T18:52:16.884Z,82.89
2019-01-11T18:54:48.051Z,82.81
2019-01-11T18:57:19.379Z,82.89
2019-01-11T18:59:50.471Z,83.26
2019-01-11T19:02:21.547Z,83.46
2019-01-11T19:04:52.588Z,83.61
2019-01-11T19:07:23.565Z,83.60
2019-01-11T19:09:54.698Z,83.68
2019-01-11T19:12:25.843Z,83.60
2019-01-11T19:14:56.933Z,83.59
2019-01-11T19:17:28.013Z,83.80
2019-01-11T19:19:59.088Z,83.59
2019-01-11T19:22:30.079Z,83.60
2019-01-11T19:25:01.258Z,83.48
2019-01-11T19:27:32.418Z,83.70
2019-01-11T19:30:06.064Z,83.91
2019-01-11T19:32:37.201Z,84.01
2019-01-11T19:35:08.485Z,83.94
2019-01-11T19:37:39.537Z,83.97
2019-01-11T19:40:11.353Z,83.92
2019-01-11T19:42:42.824Z,84.06
2019-01-11T19:45:14.192Z,83.76
2019-01-11T19:47:47.090Z,84.16
2019-01-11T19:50:20.324Z,84.04
2019-01-11T19:52:51.865Z,84.64
2019-01-11T19:55:23.010Z,84.73
2019-01-11T19:57:54.235Z,85.01
2019-01-11T20:00:27.676Z,85.36
2019-01-11T20:02:58.845Z,84.90
2019-01-11T20:05:30.011Z,84.73
2019-01-11T20:08:01.106Z,83.81
2019-01-11T20:10:33.583Z,83.83
2019-01-11T20:13:05.144Z,83.69
2019-01-11T20:15:37.269Z,83.39
2019-01-11T20:18:08.529Z,83.31
2019-01-11T20:20:39.706Z,82.89
2019-01-11T20:23:10.832Z,82.33
2019-01-11T20:25:41.910Z,82.42
2019-01-11T20:28:12.970Z,82.72
2019-01-11T20:30:44.019Z,82.77
2019-01-11T20:33:15.480Z,82.53
2019-01-11T20:35:46.733Z,82.66
2019-01-11T20:38:17.800Z,82.53
2019-01-11T20:40:48.986Z,82.47
2019-01-11T20:43:20.141Z,82.56
2019-01-11T20:45:51.258Z,82.45
2019-01-11T20:48:22.427Z,82.32
2019-01-11T20:50:53.592Z,81.87
2019-01-11T20:53:24.757Z,82.17
2019-01-11T20:55:56.101Z,81.63
2019-01-11T20:58:28.065Z,81.92
2019-01-11T21:00:59.227Z,82.49
2019-01-11T21:03:30.306Z,82.26
2019-01-11T21:06:01.474Z,82.38
2019-01-11T21:08:32.664Z,82.50
2019-01-11T21:11:03.864Z,83.40
2019-01-11T21:13:35.028Z,83.46
2019-01-11T21:16:06.740Z,83.42
2019-01-11T21:18:37.904Z,83.85
2019-01-11T21:21:09.149Z,83.84
2019-01-11T21:23:40.295Z,83.79
2019-01-11T21:26:11.484Z,84.07
2019-01-11T21:28:43.559Z,84.16
2019-01-11T21:31:14.786Z,84.27
2019-01-11T21:33:45.955Z,84.23
2019-01-11T21:36:19.991Z,84.11
2019-01-11T21:38:51.153Z,83.84
2019-01-11T21:41:22.264Z,83.89
2019-01-11T21:43:53.418Z,84.04
2019-01-11T21:46:24.579Z,84.18
2019-01-11T21:48:56.027Z,84.08
2019-01-11T21:51:27.106Z,84.19
2019-01-11T21:53:58.195Z,83.60
2019-01-11T21:56:30.172Z,83.75
2019-01-11T21:59:01.192Z,83.73
2019-01-11T22:01:32.364Z,83.59
2019-01-11T22:04:03.508Z,83.47
2019-01-11T22:06:34.713Z,83.50
2019-01-11T22:09:08.663Z,83.51
2019-01-11T22:11:39.887Z,83.34
2019-01-11T22:14:10.942Z,83.00
2019-01-11T22:16:41.993Z,82.83
2019-01-11T22:19:13.056Z,82.76
2019-01-11T22:21:44.067Z,82.81
2019-01-11T22:24:15.050Z,82.76
2019-01-11T22:26:46.291Z,82.55
2019-01-11T22:29:17.458Z,82.38
2019-01-11T22:31:48.643Z,82.36
2019-01-11T22:34:19.690Z,82.45
2019-01-11T22:36:50.847Z,82.23
2019-01-11T22:39:21.842Z,82.11
2019-01-11T22:41:53.020Z,81.97
2019-01-11T22:44:24.146Z,82.07
2019-01-11T22:46:55.303Z,81.62
2019-01-11T22:49:26.383Z,81.23
2019-01-11T22:51:57.485Z,81.23
2019-01-11T22:54:28.603Z,81.15
2019-01-11T22:56:59.704Z,80.99
2019-01-11T22:59:30.902Z,81.05
2019-01-11T23:02:33.273Z,81.10
2019-01-11T23:05:06.383Z,81.21
2019-01-11T23:07:50.648Z,81.35
2019-01-11T23:11:12.049Z,81.70
2019-01-11T23:13:43.531Z,81.98
2019-01-11T23:16:26.319Z,82.28
2019-01-11T23:18:58.429Z,82.28
2019-01-11T23:21:29.564Z,81.73
2019-01-11T23:24:00.654Z,81.21
2019-01-11T23:26:32.074Z,81.73
2019-01-11T23:29:03.182Z,82.41
2019-01-11T23:31:34.231Z,82.53
2019-01-11T23:34:05.594Z,82.94
2019-01-11T23:36:36.587Z,83.05
2019-01-11T23:39:08.642Z,83.21
2019-01-11T23:41:40.730Z,83.18
2019-01-11T23:44:11.762Z,82.97
2019-01-11T23:46:42.826Z,83.13
2019-01-11T23:49:13.927Z,83.32
2019-01-11T23:51:45.063Z,83.51
2019-01-11T23:54:16.203Z,83.89
2019-01-11T23:56:47.289Z,83.86
2019-01-11T23:59:18.399Z,83.41
